sensor_id;sensor_type;location;lat;lon;timestamp;noise_LAeq;noise_LA_min;noise_LA_max;noise_LA01;noise_LA95
17594;Laerm;8916;47.086;15.920;2023-04-15T00:01:52;49.20;48.00;50.28;;
17594;Laerm;8916;47.086;15.920;2023-04-15T00:04:21;49.20;48.10;50.27;;
17594;Laerm;8916;47.086;15.920;2023-04-15T00:06:51;49.18;48.03;50.50;;
17594;Laerm;8916;47.086;15.920;2023-04-15T00:09:21;49.18;48.02;50.28;;
17594;Laerm;8916;47.086;15.920;2023-04-15T00:11:51;49.19;48.07;50.34;;
17594;Laerm;8916;47.086;15.920;2023-04-15T00:14:20;49.19;47.96;50.53;;
17594;Laerm;8916;47.086;15.920;2023-04-15T00:16:49;49.19;48.18;50.48;;
17594;Laerm;8916;47.086;15.920;2023-04-15T00:19:24;49.19;48.21;50.44;;
17594;Laerm;8916;47.086;15.920;2023-04-15T00:21:53;49.18;47.98;50.20;;
17594;Laerm;8916;47.086;15.920;2023-04-15T00:24:22;49.19;48.13;50.31;;
17594;Laerm;8916;47.086;15.920;2023-04-15T00:26:51;49.19;48.12;50.43;;
17594;Laerm;8916;47.086;15.920;2023-04-15T00:29:21;49.19;48.00;50.42;;
17594;Laerm;8916;47.086;15.920;2023-04-15T00:31:50;49.19;48.10;50.30;;
17594;Laerm;8916;47.086;15.920;2023-04-15T00:34:20;49.18;48.07;50.21;;
17594;Laerm;8916;47.086;15.920;2023-04-15T00:36:50;49.19;48.15;50.30;;
17594;Laerm;8916;47.086;15.920;2023-04-15T00:39:21;49.17;47.90;50.32;;
17594;Laerm;8916;47.086;15.920;2023-04-15T00:41:51;49.20;48.12;50.38;;
17594;Laerm;8916;47.086;15.920;2023-04-15T00:44:21;49.17;47.83;50.39;;
17594;Laerm;8916;47.086;15.920;2023-04-15T00:46:51;49.18;48.08;50.46;;
17594;Laerm;8916;47.086;15.920;2023-04-15T00:49:20;49.19;47.91;50.43;;
17594;Laerm;8916;47.086;15.920;2023-04-15T00:51:52;49.19;48.02;50.63;;
17594;Laerm;8916;47.086;15.920;2023-04-15T00:54:21;49.19;48.13;50.36;;
17594;Laerm;8916;47.086;15.920;2023-04-15T00:56:50;49.18;48.05;50.55;;
17594;Laerm;8916;47.086;15.920;2023-04-15T00:59:20;49.18;47.77;50.30;;
17594;Laerm;8916;47.086;15.920;2023-04-15T01:01:50;49.18;48.10;50.24;;
17594;Laerm;8916;47.086;15.920;2023-04-15T01:04:19;49.19;48.10;50.40;;
17594;Laerm;8916;47.086;15.920;2023-04-15T01:06:49;49.18;48.15;50.40;;
17594;Laerm;8916;47.086;15.920;2023-04-15T01:09:20;49.19;47.96;50.26;;
17594;Laerm;8916;47.086;15.920;2023-04-15T01:11:50;49.18;48.16;50.26;;
17594;Laerm;8916;47.086;15.920;2023-04-15T01:14:20;49.19;48.05;50.25;;
17594;Laerm;8916;47.086;15.920;2023-04-15T01:16:49;49.18;48.15;50.35;;
17594;Laerm;8916;47.086;15.920;2023-04-15T01:19:19;49.18;48.13;50.35;;
17594;Laerm;8916;47.086;15.920;2023-04-15T01:21:48;49.19;48.07;50.51;;
17594;Laerm;8916;47.086;15.920;2023-04-15T01:24:20;49.19;47.74;50.37;;
17594;Laerm;8916;47.086;15.920;2023-04-15T01:26:50;49.18;48.18;50.50;;
17594;Laerm;8916;47.086;15.920;2023-04-15T01:29:19;49.19;48.21;50.33;;
17594;Laerm;8916;47.086;15.920;2023-04-15T01:31:51;49.18;47.96;50.45;;
17594;Laerm;8916;47.086;15.920;2023-04-15T01:34:20;49.19;48.12;50.37;;
17594;Laerm;8916;47.086;15.920;2023-04-15T01:36:53;49.18;47.98;50.19;;
17594;Laerm;8916;47.086;15.920;2023-04-15T01:39:22;49.18;48.12;50.29;;
17594;Laerm;8916;47.086;15.920;2023-04-15T01:41:58;49.19;47.98;50.21;;
17594;Laerm;8916;47.086;15.920;2023-04-15T01:44:27;49.19;48.15;50.32;;
17594;Laerm;8916;47.086;15.920;2023-04-15T01:46:56;49.18;48.13;50.32;;
17594;Laerm;8916;47.086;15.920;2023-04-15T01:49:26;49.19;47.84;50.37;;
17594;Laerm;8916;47.086;15.920;2023-04-15T01:51:55;49.19;47.74;50.21;;
17594;Laerm;8916;47.086;15.920;2023-04-15T01:54:24;49.19;48.03;50.57;;
17594;Laerm;8916;47.086;15.920;2023-04-15T01:56:54;49.18;48.12;50.34;;
17594;Laerm;8916;47.086;15.920;2023-04-15T01:59:25;49.19;48.07;50.20;;
17594;Laerm;8916;47.086;15.920;2023-04-15T02:01:54;49.19;48.21;50.58;;
17594;Laerm;8916;47.086;15.920;2023-04-15T02:04:24;49.19;48.02;50.33;;
17594;Laerm;8916;47.086;15.920;2023-04-15T02:06:53;49.19;48.12;50.30;;
17594;Laerm;8916;47.086;15.920;2023-04-15T02:09:22;49.19;48.18;50.27;;
17594;Laerm;8916;47.086;15.920;2023-04-15T02:11:51;49.19;48.07;50.36;;
17594;Laerm;8916;47.086;15.920;2023-04-15T02:14:21;49.18;48.07;50.24;;
17594;Laerm;8916;47.086;15.920;2023-04-15T02:16:52;49.19;48.15;50.43;;
17594;Laerm;8916;47.086;15.920;2023-04-15T02:19:21;49.19;48.08;50.66;;
17594;Laerm;8916;47.086;15.920;2023-04-15T02:21:50;49.20;48.07;50.47;;
17594;Laerm;8916;47.086;15.920;2023-04-15T02:24:19;49.19;48.23;50.47;;
17594;Laerm;8916;47.086;15.920;2023-04-15T02:26:48;49.18;48.15;50.39;;
17594;Laerm;8916;47.086;15.920;2023-04-15T02:29:17;49.18;47.95;50.24;;
17594;Laerm;8916;47.086;15.920;2023-04-15T02:31:46;49.18;48.16;50.33;;
17594;Laerm;8916;47.086;15.920;2023-04-15T02:34:17;49.19;47.96;50.37;;
17594;Laerm;8916;47.086;15.920;2023-04-15T02:36:46;49.20;48.04;50.27;;
17594;Laerm;8916;47.086;15.920;2023-04-15T02:39:16;49.19;48.00;50.34;;
17594;Laerm;8916;47.086;15.920;2023-04-15T02:41:45;49.19;48.16;50.25;;
17594;Laerm;8916;47.086;15.920;2023-04-15T02:44:18;49.18;48.08;50.21;;
17594;Laerm;8916;47.086;15.920;2023-04-15T02:46:50;49.19;48.10;50.37;;
17594;Laerm;8916;47.086;15.920;2023-04-15T02:49:23;49.20;47.84;50.29;;
17594;Laerm;8916;47.086;15.920;2023-04-15T02:51:52;49.20;48.16;50.36;;
17594;Laerm;8916;47.086;15.920;2023-04-15T02:54:22;49.19;48.13;50.42;;
17594;Laerm;8916;47.086;15.920;2023-04-15T02:56:52;49.19;48.05;50.40;;
17594;Laerm;8916;47.086;15.920;2023-04-15T02:59:22;49.19;48.13;50.47;;
17594;Laerm;8916;47.086;15.920;2023-04-15T03:01:51;49.19;47.95;50.49;;
17594;Laerm;8916;47.086;15.920;2023-04-15T03:04:22;49.19;48.08;50.48;;
17594;Laerm;8916;47.086;15.920;2023-04-15T03:06:51;49.19;48.20;50.47;;
17594;Laerm;8916;47.086;15.920;2023-04-15T03:09:20;49.20;48.23;50.52;;
17594;Laerm;8916;47.086;15.920;2023-04-15T03:11:49;49.18;48.03;50.36;;
17594;Laerm;8916;47.086;15.920;2023-04-15T03:14:20;49.19;48.18;50.57;;
17594;Laerm;8916;47.086;15.920;2023-04-15T03:16:50;49.20;48.07;50.35;;
17594;Laerm;8916;47.086;15.920;2023-04-15T03:19:23;49.19;48.07;50.26;;
17594;Laerm;8916;47.086;15.920;2023-04-15T03:21:52;49.18;48.15;50.42;;
17594;Laerm;8916;47.086;15.920;2023-04-15T03:24:22;49.20;47.95;50.45;;
17594;Laerm;8916;47.086;15.920;2023-04-15T03:26:51;49.19;48.05;50.30;;
17594;Laerm;8916;47.086;15.920;2023-04-15T03:29:23;49.19;48.16;50.24;;
17594;Laerm;8916;47.086;15.920;2023-04-15T03:31:52;49.20;47.90;50.51;;
17594;Laerm;8916;47.086;15.920;2023-04-15T03:34:23;49.19;47.93;50.45;;
17594;Laerm;8916;47.086;15.920;2023-04-15T03:36:52;49.19;48.16;50.21;;
17594;Laerm;8916;47.086;15.920;2023-04-15T03:39:21;49.19;48.15;50.48;;
17594;Laerm;8916;47.086;15.920;2023-04-15T03:41:50;49.19;47.96;50.44;;
17594;Laerm;8916;47.086;15.920;2023-04-15T03:44:19;49.20;48.12;50.26;;
17594;Laerm;8916;47.086;15.920;2023-04-15T03:46:48;49.18;48.08;50.42;;
17594;Laerm;8916;47.086;15.920;2023-04-15T03:49:17;49.20;47.86;50.35;;
17594;Laerm;8916;47.086;15.920;2023-04-15T03:51:48;49.20;48.00;50.30;;
17594;Laerm;8916;47.086;15.920;2023-04-15T03:54:18;49.19;47.86;50.56;;
17594;Laerm;8916;47.086;15.920;2023-04-15T03:56:47;49.19;48.10;50.30;;
17594;Laerm;8916;47.086;15.920;2023-04-15T03:59:16;49.20;48.16;50.31;;
17594;Laerm;8916;47.086;15.920;2023-04-15T04:01:45;49.19;48.13;50.28;;
17594;Laerm;8916;47.086;15.920;2023-04-15T04:04:14;49.19;48.23;50.27;;
17594;Laerm;8916;47.086;15.920;2023-04-15T04:06:44;49.20;48.16;50.25;;
17594;Laerm;8916;47.086;15.920;2023-04-15T04:09:15;49.19;48.13;50.61;;
17594;Laerm;8916;47.086;15.920;2023-04-15T04:11:44;49.19;48.02;50.25;;
17594;Laerm;8916;47.086;15.920;2023-04-15T04:14:13;49.20;48.15;50.24;;
17594;Laerm;8916;47.086;15.920;2023-04-15T04:16:42;49.19;48.18;50.39;;
17594;Laerm;8916;47.086;15.920;2023-04-15T04:19:12;49.19;48.15;50.42;;
17594;Laerm;8916;47.086;15.920;2023-04-15T04:21:41;49.19;48.10;50.59;;
17594;Laerm;8916;47.086;15.920;2023-04-15T04:24:11;49.20;48.02;50.57;;
17594;Laerm;8916;47.086;15.920;2023-04-15T04:26:41;49.19;48.10;50.24;;
17594;Laerm;8916;47.086;15.920;2023-04-15T04:29:10;49.19;48.00;50.37;;
17594;Laerm;8916;47.086;15.920;2023-04-15T04:31:39;49.19;48.03;50.27;;
17594;Laerm;8916;47.086;15.920;2023-04-15T04:34:08;49.19;48.12;50.29;;
17594;Laerm;8916;47.086;15.920;2023-04-15T04:36:38;49.19;48.02;50.60;;
17594;Laerm;8916;47.086;15.920;2023-04-15T04:39:07;49.19;48.10;50.30;;
17594;Laerm;8916;47.086;15.920;2023-04-15T04:41:36;49.18;48.12;50.28;;
17594;Laerm;8916;47.086;15.920;2023-04-15T04:44:06;49.19;48.13;50.48;;
17594;Laerm;8916;47.086;15.920;2023-04-15T04:46:35;49.19;48.10;50.41;;
17594;Laerm;8916;47.086;15.920;2023-04-15T04:49:04;49.19;48.05;50.26;;
17594;Laerm;8916;47.086;15.920;2023-04-15T04:51:34;49.19;48.00;50.34;;
17594;Laerm;8916;47.086;15.920;2023-04-15T04:54:03;49.20;48.12;50.36;;
17594;Laerm;8916;47.086;15.920;2023-04-15T04:56:32;49.18;48.08;50.34;;
17594;Laerm;8916;47.086;15.920;2023-04-15T04:59:02;49.18;48.12;50.32;;
17594;Laerm;8916;47.086;15.920;2023-04-15T05:01:32;49.18;48.07;50.35;;
17594;Laerm;8916;47.086;15.920;2023-04-15T05:04:02;49.18;48.13;50.32;;
17594;Laerm;8916;47.086;15.920;2023-04-15T05:06:32;49.19;48.15;50.34;;
17594;Laerm;8916;47.086;15.920;2023-04-15T05:09:03;49.19;48.16;50.24;;
17594;Laerm;8916;47.086;15.920;2023-04-15T05:11:32;49.18;48.07;50.27;;
17594;Laerm;8916;47.086;15.920;2023-04-15T05:14:01;49.18;48.01;50.26;;
17594;Laerm;8916;47.086;15.920;2023-04-15T05:16:32;49.18;47.96;50.24;;
17594;Laerm;8916;47.086;15.920;2023-04-15T05:19:01;49.18;47.95;50.29;;
17594;Laerm;8916;47.086;15.920;2023-04-15T05:21:30;49.18;47.96;50.31;;
17594;Laerm;8916;47.086;15.920;2023-04-15T05:23:59;49.17;47.91;50.39;;
17594;Laerm;8916;47.086;15.920;2023-04-15T05:26:28;49.16;48.18;50.57;;
17594;Laerm;8916;47.086;15.920;2023-04-15T05:28:58;49.18;47.95;50.40;;
17594;Laerm;8916;47.086;15.920;2023-04-15T05:31:27;49.18;48.03;50.43;;
17594;Laerm;8916;47.086;15.920;2023-04-15T05:33:58;49.17;48.07;50.18;;
17594;Laerm;8916;47.086;15.920;2023-04-15T05:36:27;49.18;48.07;50.52;;
17594;Laerm;8916;47.086;15.920;2023-04-15T05:38:56;49.18;47.90;50.36;;
17594;Laerm;8916;47.086;15.920;2023-04-15T05:41:26;49.18;48.05;50.15;;
17594;Laerm;8916;47.086;15.920;2023-04-15T05:43:55;49.17;48.15;50.29;;
17594;Laerm;8916;47.086;15.920;2023-04-15T05:46:24;49.17;48.03;50.31;;
17594;Laerm;8916;47.086;15.920;2023-04-15T05:48:53;49.17;47.98;50.29;;
17594;Laerm;8916;47.086;15.920;2023-04-15T05:51:24;49.17;47.74;50.35;;
17594;Laerm;8916;47.086;15.920;2023-04-15T05:53:53;49.18;48.16;50.25;;
17594;Laerm;8916;47.086;15.920;2023-04-15T05:56:23;49.18;48.25;50.38;;
17594;Laerm;8916;47.086;15.920;2023-04-15T05:58:53;49.17;47.96;50.49;;
17594;Laerm;8916;47.086;15.920;2023-04-15T06:01:23;49.17;48.07;50.48;;
17594;Laerm;8916;47.086;15.920;2023-04-15T06:03:52;49.17;48.08;50.33;;
17594;Laerm;8916;47.086;15.920;2023-04-15T06:06:25;49.17;48.07;50.26;;
17594;Laerm;8916;47.086;15.920;2023-04-15T06:08:55;49.17;47.90;50.34;;
17594;Laerm;8916;47.086;15.920;2023-04-15T06:11:24;49.16;48.16;50.35;;
17594;Laerm;8916;47.086;15.920;2023-04-15T06:13:54;49.17;48.00;50.30;;
17594;Laerm;8916;47.086;15.920;2023-04-15T06:16:23;49.17;47.98;50.35;;
17594;Laerm;8916;47.086;15.920;2023-04-15T06:18:52;49.18;48.08;50.46;;
17594;Laerm;8916;47.086;15.920;2023-04-15T06:21:21;49.17;48.07;50.25;;
17594;Laerm;8916;47.086;15.920;2023-04-15T06:23:52;49.16;48.10;50.21;;
17594;Laerm;8916;47.086;15.920;2023-04-15T06:26:21;49.16;47.98;50.22;;
17594;Laerm;8916;47.086;15.920;2023-04-15T06:28:50;49.16;48.16;50.28;;
17594;Laerm;8916;47.086;15.920;2023-04-15T06:31:19;49.16;47.91;50.22;;
17594;Laerm;8916;47.086;15.920;2023-04-15T06:33:49;49.16;48.08;50.45;;
17594;Laerm;8916;47.086;15.920;2023-04-15T06:36:19;49.16;48.00;50.42;;
17594;Laerm;8916;47.086;15.920;2023-04-15T06:38:48;49.15;47.98;50.30;;
17594;Laerm;8916;47.086;15.920;2023-04-15T06:41:19;49.15;48.10;50.24;;
17594;Laerm;8916;47.086;15.920;2023-04-15T06:43:48;49.15;48.08;50.18;;
17594;Laerm;8916;47.086;15.920;2023-04-15T06:46:17;49.14;47.96;50.17;;
17594;Laerm;8916;47.086;15.920;2023-04-15T06:48:46;49.15;48.00;50.42;;
17594;Laerm;8916;47.086;15.920;2023-04-15T06:51:16;49.14;48.07;50.40;;
17594;Laerm;8916;47.086;15.920;2023-04-15T06:53:45;49.14;47.96;50.17;;
17594;Laerm;8916;47.086;15.920;2023-04-15T06:56:14;49.15;48.07;50.39;;
17594;Laerm;8916;47.086;15.920;2023-04-15T06:58:44;49.14;48.05;50.35;;
17594;Laerm;8916;47.086;15.920;2023-04-15T07:01:13;49.15;47.90;50.19;;
17594;Laerm;8916;47.086;15.920;2023-04-15T07:03:42;49.14;47.98;50.33;;
17594;Laerm;8916;47.086;15.920;2023-04-15T07:06:11;49.14;48.07;50.28;;
17594;Laerm;8916;47.086;15.920;2023-04-15T07:08:41;49.15;47.81;50.45;;
17594;Laerm;8916;47.086;15.920;2023-04-15T07:11:10;49.15;48.05;50.29;;
17594;Laerm;8916;47.086;15.920;2023-04-15T07:13:39;49.15;47.93;50.56;;
17594;Laerm;8916;47.086;15.920;2023-04-15T07:16:10;49.14;48.07;50.56;;
17594;Laerm;8916;47.086;15.920;2023-04-15T07:18:39;49.14;47.98;50.21;;
17594;Laerm;8916;47.086;15.920;2023-04-15T07:21:08;49.15;48.16;50.22;;
17594;Laerm;8916;47.086;15.920;2023-04-15T07:23:39;49.15;47.98;50.20;;
17594;Laerm;8916;47.086;15.920;2023-04-15T07:26:09;49.15;48.03;50.29;;
17594;Laerm;8916;47.086;15.920;2023-04-15T07:28:39;49.15;48.00;50.42;;
17594;Laerm;8916;47.086;15.920;2023-04-15T07:31:09;49.14;48.15;50.47;;
17594;Laerm;8916;47.086;15.920;2023-04-15T07:33:39;49.14;48.15;50.43;;
17594;Laerm;8916;47.086;15.920;2023-04-15T07:36:08;49.15;48.15;50.37;;
17594;Laerm;8916;47.086;15.920;2023-04-15T07:38:38;49.14;48.08;50.37;;
17594;Laerm;8916;47.086;15.920;2023-04-15T07:41:07;49.14;48.07;50.41;;
17594;Laerm;8916;47.086;15.920;2023-04-15T07:43:37;49.15;47.88;50.47;;
17594;Laerm;8916;47.086;15.920;2023-04-15T07:46:06;49.14;48.12;50.47;;
17594;Laerm;8916;47.086;15.920;2023-04-15T07:48:36;49.15;48.03;50.27;;
17594;Laerm;8916;47.086;15.920;2023-04-15T07:51:06;49.13;48.02;50.41;;
17594;Laerm;8916;47.086;15.920;2023-04-15T07:53:35;49.13;48.07;50.28;;
17594;Laerm;8916;47.086;15.920;2023-04-15T07:56:05;49.13;48.05;50.39;;
17594;Laerm;8916;47.086;15.920;2023-04-15T07:58:34;49.13;48.02;50.20;;
17594;Laerm;8916;47.086;15.920;2023-04-15T08:01:04;49.13;47.91;50.46;;
17594;Laerm;8916;47.086;15.920;2023-04-15T08:03:33;49.14;47.96;50.19;;
17594;Laerm;8916;47.086;15.920;2023-04-15T08:06:05;49.13;47.96;50.41;;
17594;Laerm;8916;47.086;15.920;2023-04-15T08:08:34;49.13;48.16;50.53;;
17594;Laerm;8916;47.086;15.920;2023-04-15T08:11:04;49.12;47.96;50.32;;
17594;Laerm;8916;47.086;15.920;2023-04-15T08:13:33;49.13;48.02;50.27;;
17594;Laerm;8916;47.086;15.920;2023-04-15T08:16:20;49.13;47.70;50.26;;
17594;Laerm;8916;47.086;15.920;2023-04-15T08:18:51;49.13;48.10;50.45;;
17594;Laerm;8916;47.086;15.920;2023-04-15T08:21:22;49.13;48.13;50.32;;
17594;Laerm;8916;47.086;15.920;2023-04-15T08:23:52;49.12;48.07;50.28;;
17594;Laerm;8916;47.086;15.920;2023-04-15T08:26:23;49.12;47.91;50.41;;
17594;Laerm;8916;47.086;15.920;2023-04-15T08:28:56;49.12;48.03;50.38;;
17594;Laerm;8916;47.086;15.920;2023-04-15T08:31:27;49.11;48.03;50.17;;
17594;Laerm;8916;47.086;15.920;2023-04-15T08:33:57;49.12;47.98;50.26;;
17594;Laerm;8916;47.086;15.920;2023-04-15T08:36:28;49.11;47.96;50.18;;
17594;Laerm;8916;47.086;15.920;2023-04-15T08:38:57;49.12;47.76;50.22;;
17594;Laerm;8916;47.086;15.920;2023-04-15T08:41:33;49.12;48.07;50.41;;
17594;Laerm;8916;47.086;15.920;2023-04-15T08:44:08;49.11;47.98;50.27;;
17594;Laerm;8916;47.086;15.920;2023-04-15T08:46:37;49.09;48.02;50.29;;
17594;Laerm;8916;47.086;15.920;2023-04-15T08:49:10;49.10;48.10;50.26;;
17594;Laerm;8916;47.086;15.920;2023-04-15T08:51:42;49.09;48.07;50.44;;
17594;Laerm;8916;47.086;15.920;2023-04-15T08:54:13;49.09;47.91;50.30;;
17594;Laerm;8916;47.086;15.920;2023-04-15T08:56:42;49.08;47.79;50.19;;
17594;Laerm;8916;47.086;15.920;2023-04-15T08:59:11;49.08;47.96;50.15;;
17594;Laerm;8916;47.086;15.920;2023-04-15T09:01:41;49.08;47.86;50.26;;
17594;Laerm;8916;47.086;15.920;2023-04-15T09:04:11;49.06;47.91;50.20;;
17594;Laerm;8916;47.086;15.920;2023-04-15T09:06:41;49.05;47.86;50.17;;
17594;Laerm;8916;47.086;15.920;2023-04-15T09:09:11;49.06;48.00;50.28;;
17594;Laerm;8916;47.086;15.920;2023-04-15T09:11:41;49.07;48.05;50.35;;
17594;Laerm;8916;47.086;15.920;2023-04-15T09:14:10;49.07;47.95;50.23;;
17594;Laerm;8916;47.086;15.920;2023-04-15T09:16:56;49.06;47.90;50.20;;
17594;Laerm;8916;47.086;15.920;2023-04-15T09:19:25;49.05;47.79;50.23;;
17594;Laerm;8916;47.086;15.920;2023-04-15T09:21:58;49.05;47.91;50.19;;
17594;Laerm;8916;47.086;15.920;2023-04-15T09:24:36;49.06;47.88;50.23;;
17594;Laerm;8916;47.086;15.920;2023-04-15T09:27:06;49.05;47.79;50.07;;
17594;Laerm;8916;47.086;15.920;2023-04-15T09:29:35;49.06;47.91;50.20;;
17594;Laerm;8916;47.086;15.920;2023-04-15T09:32:12;49.05;48.00;50.21;;
17594;Laerm;8916;47.086;15.920;2023-04-15T09:34:42;49.05;47.83;50.21;;
17594;Laerm;8916;47.086;15.920;2023-04-15T09:37:13;49.04;48.02;50.10;;
17594;Laerm;8916;47.086;15.920;2023-04-15T09:39:58;49.04;47.93;50.20;;
17594;Laerm;8916;47.086;15.920;2023-04-15T09:42:28;49.04;48.05;50.21;;
17594;Laerm;8916;47.086;15.920;2023-04-15T09:45:08;49.04;47.98;50.21;;
17594;Laerm;8916;47.086;15.920;2023-04-15T09:47:37;49.04;47.95;50.15;;
17594;Laerm;8916;47.086;15.920;2023-04-15T09:50:07;49.04;47.90;50.22;;
17594;Laerm;8916;47.086;15.920;2023-04-15T09:52:41;49.04;47.83;50.23;;
17594;Laerm;8916;47.086;15.920;2023-04-15T09:55:12;49.04;48.08;50.14;;
17594;Laerm;8916;47.086;15.920;2023-04-15T09:57:43;49.04;47.93;50.41;;
17594;Laerm;8916;47.086;15.920;2023-04-15T10:00:14;49.03;47.98;50.10;;
17594;Laerm;8916;47.086;15.920;2023-04-15T10:02:46;49.03;47.88;50.57;;
17594;Laerm;8916;47.086;15.920;2023-04-15T10:05:16;49.04;47.93;50.18;;
17594;Laerm;8916;47.086;15.920;2023-04-15T10:07:49;49.03;48.02;50.17;;
17594;Laerm;8916;47.086;15.920;2023-04-15T10:10:18;49.03;47.81;50.28;;
17594;Laerm;8916;47.086;15.920;2023-04-15T10:12:49;49.02;48.00;50.07;;
17594;Laerm;8916;47.086;15.920;2023-04-15T10:15:20;49.02;47.81;50.70;;
17594;Laerm;8916;47.086;15.920;2023-04-15T10:17:50;49.01;47.79;50.00;;
17594;Laerm;8916;47.086;15.920;2023-04-15T10:20:21;49.02;48.02;50.19;;
17594;Laerm;8916;47.086;15.920;2023-04-15T10:22:52;49.01;47.84;50.27;;
17594;Laerm;8916;47.086;15.920;2023-04-15T10:25:23;49.00;47.90;50.47;;
17594;Laerm;8916;47.086;15.920;2023-04-15T10:27:53;49.01;47.96;50.51;;
17594;Laerm;8916;47.086;15.920;2023-04-15T10:30:23;49.02;47.95;50.15;;
17594;Laerm;8916;47.086;15.920;2023-04-15T10:32:53;49.01;47.86;50.19;;
17594;Laerm;8916;47.086;15.920;2023-04-15T10:35:23;49.01;47.79;50.27;;
17594;Laerm;8916;47.086;15.920;2023-04-15T10:37:54;49.01;47.86;50.18;;
17594;Laerm;8916;47.086;15.920;2023-04-15T10:40:29;49.01;47.90;50.17;;
17594;Laerm;8916;47.086;15.920;2023-04-15T10:43:00;49.01;47.57;50.21;;
17594;Laerm;8916;47.086;15.920;2023-04-15T10:45:32;49.01;47.95;50.17;;
17594;Laerm;8916;47.086;15.920;2023-04-15T10:48:06;49.02;47.91;50.13;;
17594;Laerm;8916;47.086;15.920;2023-04-15T10:50:36;49.01;47.83;50.26;;
17594;Laerm;8916;47.086;15.920;2023-04-15T10:53:09;49.01;47.91;50.02;;
17594;Laerm;8916;47.086;15.920;2023-04-15T10:55:39;49.01;47.90;50.25;;
17594;Laerm;8916;47.086;15.920;2023-04-15T10:58:09;49.00;47.98;50.21;;
17594;Laerm;8916;47.086;15.920;2023-04-15T11:00:38;49.00;47.88;50.23;;
17594;Laerm;8916;47.086;15.920;2023-04-15T11:03:08;49.01;47.79;50.11;;
17594;Laerm;8916;47.086;15.920;2023-04-15T11:05:51;49.00;47.90;50.08;;
17594;Laerm;8916;47.086;15.920;2023-04-15T11:08:57;49.00;47.98;50.09;;
17594;Laerm;8916;47.086;15.920;2023-04-15T11:12:04;49.01;47.76;50.25;;
17594;Laerm;8916;47.086;15.920;2023-04-15T11:14:39;49.01;48.01;50.12;;
17594;Laerm;8916;47.086;15.920;2023-04-15T11:17:10;48.99;47.65;50.00;;
17594;Laerm;8916;47.086;15.920;2023-04-15T11:19:39;48.99;47.95;50.13;;
17594;Laerm;8916;47.086;15.920;2023-04-15T11:22:09;48.98;47.88;50.12;;
17594;Laerm;8916;47.086;15.920;2023-04-15T11:24:47;48.98;47.90;50.34;;
17594;Laerm;8916;47.086;15.920;2023-04-15T11:27:21;48.98;47.93;50.22;;
17594;Laerm;8916;47.086;15.920;2023-04-15T11:29:50;48.99;47.93;50.11;;
17594;Laerm;8916;47.086;15.920;2023-04-15T11:32:21;49.00;47.81;50.21;;
17594;Laerm;8916;47.086;15.920;2023-04-15T11:34:51;48.99;47.86;50.20;;
17594;Laerm;8916;47.086;15.920;2023-04-15T11:37:28;48.99;47.86;50.09;;
17594;Laerm;8916;47.086;15.920;2023-04-15T11:39:58;48.99;48.03;50.06;;
17594;Laerm;8916;47.086;15.920;2023-04-15T11:42:30;48.99;47.95;50.15;;
17594;Laerm;8916;47.086;15.920;2023-04-15T11:45:16;48.99;47.68;50.14;;
17594;Laerm;8916;47.086;15.920;2023-04-15T11:47:45;48.99;47.96;50.14;;
17594;Laerm;8916;47.086;15.920;2023-04-15T11:50:16;48.99;47.76;50.19;;
17594;Laerm;8916;47.086;15.920;2023-04-15T11:52:55;48.98;47.86;50.02;;
17594;Laerm;8916;47.086;15.920;2023-04-15T11:55:28;48.99;47.81;50.22;;
17594;Laerm;8916;47.086;15.920;2023-04-15T11:58:09;48.98;47.86;50.22;;
17594;Laerm;8916;47.086;15.920;2023-04-15T12:00:46;48.97;47.88;50.19;;
17594;Laerm;8916;47.086;15.920;2023-04-15T12:03:20;48.98;47.84;50.08;;
17594;Laerm;8916;47.086;15.920;2023-04-15T12:06:06;48.98;47.91;50.26;;
17594;Laerm;8916;47.086;15.920;2023-04-15T12:08:58;48.97;47.74;50.21;;
17594;Laerm;8916;47.086;15.920;2023-04-15T12:11:41;48.96;47.88;50.20;;
17594;Laerm;8916;47.086;15.920;2023-04-15T12:14:19;48.97;47.83;50.13;;
17594;Laerm;8916;47.086;15.920;2023-04-15T12:16:51;48.95;47.88;50.23;;
17594;Laerm;8916;47.086;15.920;2023-04-15T12:19:26;48.95;47.84;50.20;;
17594;Laerm;8916;47.086;15.920;2023-04-15T12:22:01;48.95;47.83;50.11;;
17594;Laerm;8916;47.086;15.920;2023-04-15T12:24:31;48.95;48.02;50.13;;
17594;Laerm;8916;47.086;15.920;2023-04-15T12:27:03;48.95;47.96;50.04;;
17594;Laerm;8916;47.086;15.920;2023-04-15T12:29:35;48.93;47.76;50.10;;
17594;Laerm;8916;47.086;15.920;2023-04-15T12:32:07;48.92;47.72;50.41;;
17594;Laerm;8916;47.086;15.920;2023-04-15T12:34:38;48.93;47.86;50.21;;
17594;Laerm;8916;47.086;15.920;2023-04-15T12:37:10;48.92;47.76;50.08;;
17594;Laerm;8916;47.086;15.920;2023-04-15T12:39:42;48.93;47.83;49.91;;
17594;Laerm;8916;47.086;15.920;2023-04-15T12:42:14;48.94;47.70;50.05;;
17594;Laerm;8916;47.086;15.920;2023-04-15T12:44:46;48.92;47.81;50.25;;
17594;Laerm;8916;47.086;15.920;2023-04-15T12:47:15;48.94;47.88;50.47;;
17594;Laerm;8916;47.086;15.920;2023-04-15T12:49:44;48.93;47.79;50.11;;
17594;Laerm;8916;47.086;15.920;2023-04-15T12:52:13;48.94;47.91;50.02;;
17594;Laerm;8916;47.086;15.920;2023-04-15T12:54:43;48.94;47.93;50.14;;
17594;Laerm;8916;47.086;15.920;2023-04-15T12:57:16;48.93;47.72;50.23;;
17594;Laerm;8916;47.086;15.920;2023-04-15T12:59:45;48.93;47.91;50.05;;
17594;Laerm;8916;47.086;15.920;2023-04-15T13:02:14;48.94;47.84;50.30;;
17594;Laerm;8916;47.086;15.920;2023-04-15T13:04:43;48.95;47.79;50.27;;
17594;Laerm;8916;47.086;15.920;2023-04-15T13:07:12;48.94;47.74;50.02;;
17594;Laerm;8916;47.086;15.920;2023-04-15T13:09:42;48.92;47.77;50.00;;
17594;Laerm;8916;47.086;15.920;2023-04-15T13:12:12;48.93;47.86;50.14;;
17594;Laerm;8916;47.086;15.920;2023-04-15T13:14:42;48.92;47.70;50.03;;
17594;Laerm;8916;47.086;15.920;2023-04-15T13:17:12;48.89;47.77;50.06;;
17594;Laerm;8916;47.086;15.920;2023-04-15T13:19:41;48.90;47.83;50.38;;
17594;Laerm;8916;47.086;15.920;2023-04-15T13:22:10;48.89;47.77;50.09;;
17594;Laerm;8916;47.086;15.920;2023-04-15T13:24:39;48.90;47.81;50.01;;
17594;Laerm;8916;47.086;15.920;2023-04-15T13:27:08;48.90;47.76;50.06;;
17594;Laerm;8916;47.086;15.920;2023-04-15T13:29:39;48.90;47.72;50.11;;
17594;Laerm;8916;47.086;15.920;2023-04-15T13:32:08;48.93;47.90;50.10;;
17594;Laerm;8916;47.086;15.920;2023-04-15T13:34:37;48.92;47.81;50.05;;
17594;Laerm;8916;47.086;15.920;2023-04-15T13:37:06;48.92;47.93;50.05;;
17594;Laerm;8916;47.086;15.920;2023-04-15T13:39:35;48.91;47.68;50.04;;
17594;Laerm;8916;47.086;15.920;2023-04-15T13:42:04;48.92;47.77;50.16;;
17594;Laerm;8916;47.086;15.920;2023-04-15T13:44:33;48.93;47.81;50.23;;
17594;Laerm;8916;47.086;15.920;2023-04-15T13:47:04;48.93;47.72;50.21;;
17594;Laerm;8916;47.086;15.920;2023-04-15T13:49:33;48.93;47.68;50.01;;
17594;Laerm;8916;47.086;15.920;2023-04-15T13:52:02;48.94;47.88;50.15;;
17594;Laerm;8916;47.086;15.920;2023-04-15T13:54:32;48.94;47.68;50.14;;
17594;Laerm;8916;47.086;15.920;2023-04-15T13:57:04;48.94;47.67;50.06;;
17594;Laerm;8916;47.086;15.920;2023-04-15T13:59:34;48.95;47.77;50.14;;
17594;Laerm;8916;47.086;15.920;2023-04-15T14:02:04;48.97;47.63;50.17;;
17594;Laerm;8916;47.086;15.920;2023-04-15T14:04:33;48.98;47.72;50.35;;